ADDS METAR Data INFO
IDs: Format: Raw Decoded Include TAF

Data at: 0735 UTC 18 Oct 2017

KCLE 180651Z 15004KT 10SM FEW250 10/04 A3028 RMK AO2 SLP255 T01000039
KCLE 180551Z 20007KT 10SM FEW250 12/04 A3027 RMK AO2 SLP250 T01220039 10150 20117 51003
KCLE 180451Z 21009KT 10SM FEW250 13/03 A3027 RMK AO2 SLP250 T01330033 401940044
KCLE 180351Z 21009KT 10SM SCT250 14/03 A3027 RMK AO2 SLP249 T01390033
KCLE 180251Z 20008KT 10SM FEW250 13/04 A3026 RMK AO2 SLP248 T01280039 52013
KCLE 180151Z 20009KT 10SM FEW250 14/04 A3025 RMK AO2 SLP243 T01390039
KCLE 180051Z 20008KT 10SM FEW250 14/04 A3024 RMK AO2 SLP240 T01440039
KCLE 172351Z 20007KT 10SM CLR 15/04 A3022 RMK AO2 SLP236 T01500039 10194 20150 53002
KCLE 172251Z 21008KT 10SM FEW250 16/04 A3021 RMK AO2 SLP231 T01610039
KCLE 172151Z 22013KT 10SM FEW250 18/03 A3021 RMK AO2 SLP230 T01830033
KCLE 172051Z 24013KT 10SM FEW250 19/04 A3022 RMK AO2 SLP233 T01940044 56017
KCLE 171951Z 22012G20KT 10SM SCT250 19/04 A3023 RMK AO2 SLP237 T01940044
KCLE 171851Z 21010G20KT 10SM SCT250 19/04 A3024 RMK AO2 SLP242 T01890039
KCLE 171751Z 24012G24KT 10SM FEW250 19/04 A3027 RMK AO2 SLP250 T01890039 10189 20072 58016
KCLE 171651Z 22009KT 10SM FEW250 18/04 A3029 RMK AO2 SLP259 T01780044
KCLE 171551Z 22012KT 10SM CLR 17/04 A3030 RMK AO2 SLP263 T01670044
KCLE 171451Z 21011G20KT 10SM CLR 14/04 A3031 RMK AO2 SLP267 T01440039 58002
KCLE 171351Z 21009KT 10SM CLR 12/04 A3032 RMK AO2 SLP269 T01220039
KCLE 171251Z 20009KT 10SM CLR 09/03 A3033 RMK AO2 SLP272 T00890033
KCLE 171151Z 18010KT 10SM CLR 07/02 A3032 RMK AO2 SLP270 T00720022 10072 20044 50003
KCLE 171051Z 20006KT 10SM CLR 07/02 A3032 RMK AO2 SLP272 T00720022
KCLE 170951Z 18010KT 10SM CLR 07/02 A3032 RMK AO2 SLP270 T00720017
KCLE 170851Z 19005KT 10SM CLR 06/02 A3031 RMK AO2 SLP267 T00560017 53002
KCLE 170751Z 18005KT 10SM CLR 05/02 A3030 RMK AO2 SLP264 T00500017
KCLE 170651Z 17003KT 10SM CLR 04/02 A3031 RMK AO2 SLP266 T00440022
KCLE 170551Z 17004KT 10SM CLR 05/02 A3030 RMK AO2 SLP264 T00500022 10100 20044 55002
KCLE 170451Z 18004KT 10SM CLR 05/02 A3030 RMK AO2 SLP263 T00500022 401390050
KCLE 170351Z 18004KT 10SM CLR 06/02 A3030 RMK AO2 SLP265 T00610022
KCLE 170251Z 16007KT 10SM CLR 07/03 A3031 RMK AO2 SLP267 T00670028 53002
KCLE 170151Z 16006KT 10SM CLR 06/03 A3031 RMK AO2 SLP266 T00610033
KCLE 170051Z 18003KT 10SM FEW080 07/03 A3030 RMK AO2 SLP265 T00720028
KCLE 162351Z 24003KT 10SM FEW080 09/02 A3030 RMK AO2 SLP264 T00890017 10139 20089 53003
KCLE 162251Z 31005KT 10SM FEW080 11/01 A3030 RMK AO2 SLP263 T01060011
KCLE 162151Z 29007KT 10SM FEW045 12/01 A3029 RMK AO2 SLP259 T01220011
KCLE 162051Z 32008KT 10SM FEW045 13/02 A3030 RMK AO2 SLP260 T01280017 53001
KCLE 161951Z 35010KT 10SM FEW043 13/02 A3029 RMK AO2 SLP258 T01330017